createdAt,value
2024-04-02T00:01:09.452Z,43.40
2024-04-02T00:03:35.773Z,49.20
2024-04-02T00:06:02.105Z,37.10
2024-04-02T00:08:28.418Z,32.90
2024-04-02T00:10:54.764Z,44.70
2024-04-02T00:13:21.107Z,42.50
2024-04-02T00:15:47.449Z,48.80
2024-04-02T00:18:13.794Z,54.60
2024-04-02T00:20:40.083Z,54.10
2024-04-02T00:23:06.436Z,43.70
2024-04-02T00:25:32.738Z,46.30
2024-04-02T00:27:59.044Z,49.00
2024-04-02T00:30:25.366Z,45.60
2024-04-02T00:32:51.683Z,45.00
2024-04-02T00:35:18.004Z,56.20
2024-04-02T00:37:44.315Z,53.80
2024-04-02T00:40:10.667Z,41.40
2024-04-02T00:42:36.962Z,37.60
2024-04-02T00:45:03.301Z,46.70
2024-04-02T00:47:29.614Z,41.70
2024-04-02T00:49:55.919Z,45.40
2024-04-02T00:52:22.279Z,43.20
2024-04-02T00:54:48.600Z,45.70
2024-04-02T00:57:14.946Z,38.00
2024-04-02T00:59:41.275Z,34.50
2024-04-02T01:02:07.595Z,36.80
2024-04-02T01:04:33.900Z,39.30
2024-04-02T01:07:00.218Z,38.90
2024-04-02T01:09:26.525Z,45.10
2024-04-02T01:11:52.858Z,41.40
2024-04-02T01:14:19.192Z,40.20
2024-04-02T01:16:45.510Z,41.30
2024-04-02T01:19:11.839Z,44.70
2024-04-02T01:21:38.142Z,38.70
2024-04-02T01:24:04.495Z,35.80
2024-04-02T01:26:30.793Z,48.80
2024-04-02T01:28:57.113Z,40.10
2024-04-02T01:31:23.459Z,33.30
2024-04-02T01:33:49.792Z,40.30
2024-04-02T01:36:16.099Z,42.80
2024-04-02T01:38:42.436Z,41.40
2024-04-02T01:41:08.775Z,51.30
2024-04-02T01:43:35.394Z,45.40
2024-04-02T01:46:01.695Z,38.20
2024-04-02T01:48:28.020Z,51.00
2024-04-02T01:50:54.351Z,51.50
2024-04-02T01:53:20.674Z,38.50
2024-04-02T01:55:47.000Z,34.80
2024-04-02T01:58:13.323Z,44.90
2024-04-02T02:00:39.640Z,44.80
2024-04-02T02:03:05.959Z,41.80
2024-04-02T02:05:32.268Z,43.40
2024-04-02T02:07:58.619Z,47.80
2024-04-02T02:10:24.927Z,36.60
2024-04-02T02:12:51.266Z,39.20
2024-04-02T02:15:17.598Z,33.40
2024-04-02T02:17:43.908Z,42.90
2024-04-02T02:20:10.260Z,38.70
2024-04-02T02:22:36.574Z,34.50
2024-04-02T02:25:02.916Z,53.00
2024-04-02T02:27:29.259Z,38.60
2024-04-02T02:29:55.605Z,39.70
2024-04-02T02:32:21.916Z,40.90
2024-04-02T02:34:48.231Z,40.50
2024-04-02T02:37:14.578Z,35.60
2024-04-02T02:39:40.894Z,35.60
2024-04-02T02:42:07.214Z,42.70
2024-04-02T02:44:33.537Z,34.80
2024-04-02T02:46:59.871Z,36.00
2024-04-02T02:49:26.173Z,41.00
2024-04-02T02:51:52.496Z,47.70
2024-04-02T02:54:18.804Z,35.20
2024-04-02T02:56:45.142Z,43.90
2024-04-02T02:59:11.440Z,36.30
2024-04-02T03:01:37.752Z,33.60
2024-04-02T03:04:04.116Z,45.40
2024-04-02T03:06:30.458Z,31.90
2024-04-02T03:08:56.755Z,39.00
2024-04-02T03:11:23.073Z,41.70
2024-04-02T03:13:49.401Z,55.00
2024-04-02T03:16:15.751Z,36.90
2024-04-02T03:18:42.093Z,39.70
2024-04-02T03:21:08.405Z,34.20
2024-04-02T03:23:34.868Z,42.10
2024-04-02T03:26:01.230Z,34.60
2024-04-02T03:28:27.537Z,35.20
2024-04-02T03:30:53.858Z,38.10
2024-04-02T03:33:20.199Z,38.10
2024-04-02T03:35:46.514Z,44.90
2024-04-02T03:38:12.815Z,45.50
2024-04-02T03:40:39.139Z,43.40
2024-04-02T03:43:05.447Z,49.20
2024-04-02T03:45:31.744Z,45.60
2024-04-02T03:47:58.063Z,46.70
2024-04-02T03:50:24.378Z,38.70
2024-04-02T03:52:50.684Z,34.80
2024-04-02T03:55:19.850Z,38.80
2024-04-02T03:57:46.517Z,26.90
2024-04-02T04:00:12.852Z,36.50
2024-04-02T04:02:39.163Z,33.00
2024-04-02T04:05:05.465Z,32.40
2024-04-02T04:07:31.794Z,41.90
2024-04-02T04:09:58.112Z,34.90
2024-04-02T04:12:24.445Z,24.80
2024-04-02T04:14:50.768Z,39.30
2024-04-02T04:17:17.093Z,37.40
2024-04-02T04:19:43.423Z,31.50
2024-04-02T04:22:09.716Z,35.30
2024-04-02T04:24:36.031Z,32.50
2024-04-02T04:27:02.359Z,33.90
2024-04-02T04:29:28.677Z,30.80
2024-04-02T04:31:54.990Z,29.90
2024-04-02T04:34:21.296Z,30.90
2024-04-02T04:36:47.604Z,23.80
2024-04-02T04:39:13.908Z,24.00
2024-04-02T04:41:40.203Z,15.80
2024-04-02T04:44:06.492Z,19.10
2024-04-02T04:46:33.938Z,20.40
2024-04-02T04:49:00.869Z,14.70
2024-04-02T04:51:27.186Z,12.40
2024-04-02T04:53:53.507Z,10.60
2024-04-02T04:56:19.938Z,10.50
2024-04-02T04:58:46.358Z,8.80
2024-04-02T05:01:12.665Z,7.90
2024-04-02T05:03:38.997Z,4.90
2024-04-02T05:06:05.324Z,6.90
2024-04-02T05:08:31.643Z,11.40
2024-04-02T05:10:57.963Z,4.20
2024-04-02T05:13:24.280Z,9.10
2024-04-02T05:15:50.607Z,7.00
2024-04-02T05:18:16.935Z,9.50
2024-04-02T05:20:43.237Z,7.80
2024-04-02T05:23:09.589Z,8.90
2024-04-02T05:25:35.907Z,11.60
2024-04-02T05:28:02.281Z,4.90
2024-04-02T05:30:28.593Z,4.30
2024-04-02T05:32:54.905Z,6.70
2024-04-02T05:35:21.278Z,8.10
2024-04-02T05:37:47.595Z,4.40
2024-04-02T05:40:19.732Z,5.20
2024-04-02T05:42:46.067Z,8.60
2024-04-02T05:45:12.410Z,8.60
2024-04-02T05:47:38.741Z,5.40
2024-04-02T05:50:05.071Z,4.40
2024-04-02T05:52:31.384Z,6.50
2024-04-02T05:54:57.675Z,8.70
2024-04-02T05:57:23.984Z,8.40
2024-04-02T05:59:50.320Z,7.10
2024-04-02T06:02:16.656Z,5.60
2024-04-02T06:04:42.985Z,6.90
2024-04-02T06:07:09.313Z,9.10
2024-04-02T06:09:35.607Z,5.40
2024-04-02T06:12:01.923Z,4.00
2024-04-02T06:14:28.252Z,6.80
2024-04-02T06:16:54.548Z,9.00
2024-04-02T06:19:20.907Z,7.90
2024-04-02T06:21:47.244Z,6.40
2024-04-02T06:24:13.572Z,5.10
2024-04-02T06:26:39.887Z,6.20
2024-04-02T06:29:06.201Z,6.60
2024-04-02T06:31:32.532Z,6.00
2024-04-02T06:33:58.901Z,6.90
2024-04-02T06:36:25.246Z,6.20
2024-04-02T06:38:51.607Z,7.70
2024-04-02T06:41:17.924Z,7.10
2024-04-02T06:43:44.316Z,7.70
2024-04-02T06:46:10.617Z,5.30
2024-04-02T06:48:36.910Z,6.10
2024-04-02T06:51:03.209Z,4.80
2024-04-02T06:53:29.533Z,3.70
2024-04-02T06:55:58.813Z,7.40
2024-04-02T06:58:25.169Z,4.50
2024-04-02T07:00:51.480Z,3.20
2024-04-02T07:03:17.834Z,3.90
2024-04-02T07:05:44.170Z,2.80
2024-04-02T07:08:10.489Z,4.40
2024-04-02T07:10:36.950Z,3.70
2024-04-02T07:13:03.288Z,3.60
2024-04-02T07:15:29.615Z,4.60
2024-04-02T07:17:55.923Z,3.50
2024-04-02T07:20:22.298Z,5.70
2024-04-02T07:22:48.601Z,4.50
2024-04-02T07:25:14.968Z,4.80
2024-04-02T07:27:41.289Z,7.20
2024-04-02T07:30:07.601Z,4.20
2024-04-02T07:32:33.994Z,4.30
2024-04-02T07:35:00.380Z,3.00
2024-04-02T07:37:26.711Z,4.00
2024-04-02T07:39:53.018Z,3.20
2024-04-02T07:42:19.326Z,2.70
2024-04-02T07:44:45.639Z,2.20
2024-04-02T07:47:11.941Z,4.40
2024-04-02T07:49:38.269Z,3.30
2024-04-02T07:52:04.574Z,3.80
2024-04-02T07:54:30.913Z,4.50
2024-04-02T07:56:57.234Z,4.30
2024-04-02T07:59:23.597Z,4.80
2024-04-02T08:01:49.939Z,6.30
2024-04-02T08:04:16.236Z,4.80
2024-04-02T08:06:42.537Z,5.00
2024-04-02T08:09:08.873Z,5.80
2024-04-02T08:11:35.216Z,7.10
2024-04-02T08:14:01.563Z,3.80
2024-04-02T08:16:27.914Z,3.00
2024-04-02T08:18:54.254Z,3.40
2024-04-02T08:21:20.598Z,5.00
2024-04-02T08:23:46.901Z,4.90
2024-04-02T08:26:13.201Z,6.00
2024-04-02T08:28:39.519Z,3.30
2024-04-02T08:31:05.837Z,2.70
2024-04-02T08:33:32.135Z,3.20
2024-04-02T08:35:58.457Z,5.00
2024-04-02T08:38:24.813Z,3.60
2024-04-02T08:40:51.122Z,5.10
2024-04-02T08:43:17.441Z,3.10
2024-04-02T08:45:43.746Z,5.20
2024-04-02T08:48:10.076Z,2.90
2024-04-02T08:50:36.390Z,2.50
2024-04-02T08:53:02.704Z,3.30
2024-04-02T08:55:29.010Z,2.40
2024-04-02T08:57:55.314Z,2.30
2024-04-02T09:00:21.648Z,3.40
2024-04-02T09:02:47.970Z,3.10
2024-04-02T09:05:14.277Z,3.50
2024-04-02T09:07:40.589Z,2.10
2024-04-02T09:10:06.929Z,4.80
2024-04-02T09:12:33.297Z,3.70
2024-04-02T09:14:59.620Z,2.50
2024-04-02T09:17:26.004Z,2.70
2024-04-02T09:19:52.331Z,4.00
2024-04-02T09:22:18.635Z,3.80
2024-04-02T09:24:44.938Z,3.70
2024-04-02T09:27:11.255Z,5.50
2024-04-02T09:29:37.565Z,3.80
2024-04-02T09:32:03.917Z,5.40
2024-04-02T09:34:30.214Z,4.60
2024-04-02T09:36:56.536Z,3.90
2024-04-02T09:39:22.828Z,4.50
2024-04-02T09:42:01.303Z,4.80
2024-04-02T09:44:29.833Z,5.10
2024-04-02T09:46:56.165Z,3.20
2024-04-02T09:49:22.481Z,4.70
2024-04-02T09:51:48.783Z,2.70
2024-04-02T09:54:15.095Z,2.20
2024-04-02T09:56:41.412Z,3.20
2024-04-02T09:59:07.713Z,2.60
2024-04-02T10:01:34.022Z,2.80
2024-04-02T10:04:00.321Z,2.40
2024-04-02T10:06:26.667Z,2.10
2024-04-02T10:08:52.993Z,2.20
2024-04-02T10:11:19.346Z,2.20
2024-04-02T10:13:45.666Z,2.10
2024-04-02T10:16:11.960Z,3.10
2024-04-02T10:18:38.262Z,2.70
2024-04-02T10:21:04.567Z,2.00
2024-04-02T10:23:30.910Z,2.50
2024-04-02T10:25:57.223Z,2.10
2024-04-02T10:28:23.556Z,1.70
2024-04-02T10:30:49.894Z,3.10
2024-04-02T10:33:16.208Z,1.90
2024-04-02T10:35:42.519Z,2.00
2024-04-02T10:38:08.820Z,2.50
2024-04-02T10:40:35.149Z,1.40
2024-04-02T10:43:01.509Z,1.50
2024-04-02T10:45:27.896Z,2.40
2024-04-02T10:47:54.201Z,2.70
2024-04-02T10:50:20.517Z,2.40
2024-04-02T10:52:46.829Z,3.30
2024-04-02T10:55:13.149Z,3.40
2024-04-02T10:57:39.510Z,3.60
2024-04-02T11:00:05.836Z,3.40
2024-04-02T11:02:32.295Z,2.00
2024-04-02T11:04:58.629Z,3.90
2024-04-02T11:07:24.971Z,2.70
2024-04-02T11:09:51.300Z,2.00
2024-04-02T11:12:17.589Z,2.00
2024-04-02T11:14:43.921Z,2.60
2024-04-02T11:17:10.262Z,2.10
2024-04-02T11:19:36.582Z,2.50
2024-04-02T11:22:02.912Z,3.20
2024-04-02T11:24:29.234Z,2.00
2024-04-02T11:26:55.576Z,2.40
2024-04-02T11:29:21.874Z,3.40
2024-04-02T11:31:48.226Z,2.70
2024-04-02T11:34:14.540Z,3.00
2024-04-02T11:36:40.861Z,3.10
2024-04-02T11:39:07.187Z,3.00
2024-04-02T11:41:33.487Z,5.10
2024-04-02T11:43:59.818Z,2.80
2024-04-02T11:46:26.140Z,2.50
2024-04-02T11:48:52.443Z,3.60
2024-04-02T11:51:18.760Z,3.00
2024-04-02T11:53:45.051Z,2.80
2024-04-02T11:56:11.363Z,4.70
2024-04-02T11:58:37.675Z,4.30
2024-04-02T12:01:05.439Z,4.70
2024-04-02T12:03:32.977Z,4.90
2024-04-02T12:05:59.288Z,4.90
2024-04-02T12:08:25.586Z,4.50
2024-04-02T12:10:51.913Z,3.90
2024-04-02T12:13:18.219Z,4.90
2024-04-02T12:15:44.521Z,4.10
2024-04-02T12:18:10.868Z,4.60
2024-04-02T12:20:37.186Z,4.40
2024-04-02T12:23:03.528Z,5.40
2024-04-02T12:25:29.841Z,5.00
2024-04-02T12:27:56.166Z,5.50
2024-04-02T12:30:22.533Z,5.30
2024-04-02T12:32:48.957Z,4.80
2024-04-02T12:35:15.383Z,4.20
2024-04-02T12:37:41.698Z,3.30
2024-04-02T12:40:08.027Z,5.90
2024-04-02T12:42:34.357Z,3.90
2024-04-02T12:45:00.772Z,3.60
2024-04-02T12:47:27.088Z,3.50
2024-04-02T12:49:53.402Z,4.00
2024-04-02T12:52:19.705Z,3.20
2024-04-02T12:54:46.012Z,4.80
2024-04-02T12:57:12.340Z,4.40
2024-04-02T12:59:38.673Z,4.30
2024-04-02T13:02:05.001Z,4.40
2024-04-02T13:04:31.336Z,4.70
2024-04-02T13:06:57.660Z,4.80
2024-04-02T13:09:24.005Z,6.50
2024-04-02T13:11:50.338Z,6.30
2024-04-02T13:14:16.638Z,7.70
2024-04-02T13:16:42.980Z,5.80
2024-04-02T13:19:09.300Z,6.10
2024-04-02T13:21:35.632Z,5.40
2024-04-02T13:24:01.961Z,5.00
2024-04-02T13:26:28.277Z,5.40
2024-04-02T13:28:54.577Z,4.60
2024-04-02T13:31:20.899Z,6.60
2024-04-02T13:33:47.234Z,4.80
2024-04-02T13:36:13.563Z,5.00
2024-04-02T13:38:39.863Z,5.30
2024-04-02T13:41:06.151Z,5.40
2024-04-02T13:43:32.471Z,5.10
2024-04-02T13:45:58.784Z,5.70
2024-04-02T13:48:25.110Z,5.50
2024-04-02T13:50:51.456Z,5.60
2024-04-02T13:53:17.790Z,5.60
2024-04-02T13:55:44.145Z,6.10
2024-04-02T13:58:10.430Z,7.20
2024-04-02T14:00:36.758Z,5.70
2024-04-02T14:03:03.070Z,6.10
2024-04-02T14:05:29.374Z,6.40
2024-04-02T14:07:55.730Z,5.60
2024-04-02T14:10:22.064Z,7.20
2024-04-02T14:12:48.442Z,6.50
2024-04-02T14:15:14.768Z,7.20
2024-04-02T14:17:41.077Z,6.60
2024-04-02T14:20:07.375Z,6.40
2024-04-02T14:22:33.732Z,5.50
2024-04-02T14:25:00.035Z,6.70
2024-04-02T14:27:26.360Z,5.40
2024-04-02T14:29:52.664Z,8.70
2024-04-02T14:32:18.974Z,6.50
2024-04-02T14:34:45.285Z,7.30
2024-04-02T14:37:11.602Z,6.60
2024-04-02T14:39:37.988Z,7.60
2024-04-02T14:42:04.312Z,7.70
2024-04-02T14:44:30.657Z,6.90
2024-04-02T14:46:59.232Z,8.70
2024-04-02T14:49:27.106Z,7.70
2024-04-02T14:51:53.490Z,10.00
2024-04-02T14:54:19.798Z,8.30
2024-04-02T14:56:46.109Z,9.50
2024-04-02T14:59:12.422Z,7.00
2024-04-02T15:01:38.736Z,6.20
2024-04-02T15:05:28.054Z,8.00
2024-04-02T15:07:54.381Z,17.70
2024-04-02T15:10:20.690Z,11.90
2024-04-02T15:12:47.009Z,9.80
2024-04-02T15:15:13.326Z,9.70
2024-04-02T15:17:39.614Z,8.20
2024-04-02T15:20:05.918Z,12.10
2024-04-02T15:22:32.233Z,9.40
2024-04-02T15:24:58.535Z,9.20
2024-04-02T15:27:24.842Z,9.70
2024-04-02T15:29:51.148Z,8.90
2024-04-02T15:32:17.448Z,8.70
2024-04-02T15:34:43.771Z,7.40
2024-04-02T15:37:10.091Z,7.60
2024-04-02T15:39:36.407Z,9.60
2024-04-02T15:42:02.726Z,9.00
2024-04-02T15:44:29.055Z,10.20
2024-04-02T15:46:57.355Z,9.10
2024-04-02T15:49:24.920Z,10.30
2024-04-02T15:51:51.254Z,8.70
2024-04-02T15:54:17.586Z,9.90
2024-04-02T15:56:43.913Z,9.00
2024-04-02T15:59:10.241Z,8.50
2024-04-02T16:01:36.556Z,7.30
2024-04-02T16:04:02.855Z,7.00
2024-04-02T16:06:29.174Z,8.00
2024-04-02T16:08:55.489Z,7.70
2024-04-02T16:11:21.781Z,10.70
2024-04-02T16:13:48.097Z,13.80
2024-04-02T16:16:14.411Z,13.10
2024-04-02T16:18:40.730Z,12.60
2024-04-02T16:21:07.048Z,12.10
2024-04-02T16:23:33.333Z,12.20
2024-04-02T16:25:59.647Z,12.50
2024-04-02T16:28:25.951Z,11.00
2024-04-02T16:30:52.265Z,11.60
2024-04-02T16:33:18.603Z,10.30
2024-04-02T16:35:44.909Z,10.00
2024-04-02T16:38:11.214Z,12.40
2024-04-02T16:40:37.539Z,10.20
2024-04-02T16:43:03.875Z,11.10
2024-04-02T16:45:30.194Z,8.80
2024-04-02T16:47:56.495Z,9.50
2024-04-02T16:50:22.849Z,10.20
2024-04-02T16:52:49.218Z,12.10
2024-04-02T16:55:15.540Z,16.60
2024-04-02T16:57:41.866Z,21.50
2024-04-02T17:00:08.232Z,23.50
2024-04-02T17:02:34.556Z,23.70
2024-04-02T17:05:00.882Z,21.20
2024-04-02T17:07:27.190Z,17.80
2024-04-02T17:09:53.617Z,14.00
2024-04-02T17:12:19.950Z,15.80
2024-04-02T17:14:46.255Z,13.70
2024-04-02T17:17:12.599Z,10.30
2024-04-02T17:19:38.899Z,10.90
2024-04-02T17:22:05.246Z,12.20
2024-04-02T17:24:31.617Z,9.60
2024-04-02T17:26:57.984Z,9.10
2024-04-02T17:29:24.355Z,8.10
2024-04-02T17:31:50.689Z,12.10
2024-04-02T17:34:17.084Z,9.10
2024-04-02T17:36:43.409Z,8.90
2024-04-02T17:39:09.766Z,9.50
2024-04-02T17:41:36.325Z,9.90
2024-04-02T17:44:02.662Z,8.80
2024-04-02T17:46:28.996Z,9.90
2024-04-02T17:48:55.304Z,15.10
2024-04-02T17:51:21.615Z,18.10
2024-04-02T17:53:47.959Z,19.40
2024-04-02T17:56:14.279Z,15.00
2024-04-02T17:58:40.626Z,11.60
2024-04-02T18:01:06.960Z,11.90
2024-04-02T18:03:33.291Z,10.70
2024-04-02T18:05:59.615Z,12.70
2024-04-02T18:08:25.961Z,8.80
2024-04-02T18:10:52.311Z,9.00
2024-04-02T18:13:18.646Z,11.90
2024-04-02T18:15:44.952Z,9.30
2024-04-02T18:18:11.330Z,10.10
2024-04-02T18:20:37.655Z,12.20
2024-04-02T18:23:03.971Z,7.80
2024-04-02T18:25:30.293Z,9.80
2024-04-02T18:27:57.322Z,8.10
2024-04-02T18:30:23.826Z,8.00
2024-04-02T18:32:50.146Z,8.40
2024-04-02T18:35:16.483Z,8.00
2024-04-02T18:37:42.793Z,9.50
2024-04-02T18:40:12.634Z,7.40
2024-04-02T18:42:41.265Z,7.60
2024-04-02T18:45:07.581Z,8.80
2024-04-02T18:47:33.878Z,7.40
2024-04-02T18:50:00.222Z,7.80
2024-04-02T18:52:26.527Z,12.00
2024-04-02T18:54:52.884Z,9.70
2024-04-02T18:57:19.199Z,8.50
2024-04-02T18:59:45.562Z,6.90
2024-04-02T19:02:11.885Z,8.70
2024-04-02T19:04:38.214Z,5.90
2024-04-02T19:07:04.521Z,5.90
2024-04-02T19:09:33.171Z,7.40
2024-04-02T19:11:59.529Z,6.00
2024-04-02T19:14:25.840Z,9.30
2024-04-02T19:16:52.197Z,5.20
2024-04-02T19:19:18.559Z,5.20
2024-04-02T19:21:44.892Z,5.70
2024-04-02T19:24:11.178Z,4.60
2024-04-02T19:26:37.504Z,6.10
2024-04-02T19:29:03.830Z,5.60
2024-04-02T19:31:30.200Z,5.40
2024-04-02T19:33:56.580Z,5.10
2024-04-02T19:36:22.893Z,5.40
2024-04-02T19:38:49.239Z,4.80
2024-04-02T19:41:15.557Z,5.20
2024-04-02T19:43:41.865Z,4.30
2024-04-02T19:46:08.176Z,3.50
2024-04-02T19:48:34.491Z,4.10
2024-04-02T19:51:00.919Z,5.10
2024-04-02T19:53:27.242Z,3.30
2024-04-02T19:55:53.551Z,3.70
2024-04-02T19:58:19.912Z,3.50
2024-04-02T20:00:46.327Z,3.90
2024-04-02T20:03:12.667Z,3.90
2024-04-02T20:05:39.037Z,3.40
2024-04-02T20:08:05.349Z,4.10
2024-04-02T20:10:31.683Z,4.60
2024-04-02T20:12:58.011Z,3.40
2024-04-02T20:15:24.317Z,2.70
2024-04-02T20:17:50.672Z,3.30
2024-04-02T20:20:16.992Z,4.00
2024-04-02T20:22:43.295Z,4.70
2024-04-02T20:25:09.618Z,4.80
2024-04-02T20:27:35.921Z,3.60
2024-04-02T20:30:02.267Z,3.30
2024-04-02T20:32:28.580Z,5.40
2024-04-02T20:34:54.882Z,3.80
2024-04-02T20:37:21.219Z,5.80
2024-04-02T20:39:47.545Z,5.20
2024-04-02T20:42:13.894Z,6.00
2024-04-02T20:44:40.212Z,5.10
2024-04-02T20:47:06.785Z,4.80
2024-04-02T20:49:33.112Z,4.30
2024-04-02T20:51:59.468Z,4.60
2024-04-02T20:54:25.788Z,3.70
2024-04-02T20:56:52.097Z,3.10
2024-04-02T20:59:18.410Z,3.60
2024-04-02T21:01:44.741Z,3.70
2024-04-02T21:04:11.091Z,4.80
2024-04-02T21:06:37.403Z,5.50
2024-04-02T21:09:03.714Z,3.40
2024-04-02T21:11:30.026Z,4.10
2024-04-02T21:13:56.336Z,4.00
2024-04-02T21:16:22.645Z,3.90
2024-04-02T21:18:48.965Z,3.40
2024-04-02T21:21:15.314Z,2.60
2024-04-02T21:23:41.632Z,4.70
2024-04-02T21:26:07.953Z,2.60
2024-04-02T21:28:34.277Z,2.70
2024-04-02T21:31:00.600Z,3.40
2024-04-02T21:33:26.914Z,3.00
2024-04-02T21:35:53.256Z,3.30
2024-04-02T21:38:19.621Z,3.10
2024-04-02T21:40:45.949Z,3.80
2024-04-02T21:43:12.279Z,4.90
2024-04-02T21:45:38.593Z,4.10
2024-04-02T21:48:04.930Z,3.80
2024-04-02T21:50:31.263Z,5.60
2024-04-02T21:52:57.586Z,3.80
2024-04-02T21:55:23.896Z,4.00
2024-04-02T21:57:50.207Z,2.90
2024-04-02T22:00:16.532Z,2.90
2024-04-02T22:02:42.862Z,4.40
2024-04-02T22:05:09.186Z,5.10
2024-04-02T22:07:35.514Z,4.70
2024-04-02T22:10:01.802Z,4.10
2024-04-02T22:12:28.220Z,3.50
2024-04-02T22:14:54.527Z,1.90
2024-04-02T22:17:20.865Z,4.10
2024-04-02T22:19:47.184Z,2.60
2024-04-02T22:22:13.487Z,3.20
2024-04-02T22:24:39.792Z,2.80
2024-04-02T22:27:06.154Z,3.80
2024-04-02T22:29:32.538Z,3.90
2024-04-02T22:31:58.871Z,1.60
2024-04-02T22:34:25.207Z,6.20
2024-04-02T22:36:51.528Z,3.20
2024-04-02T22:39:17.856Z,3.20
2024-04-02T22:41:44.142Z,4.20
2024-04-02T22:44:10.461Z,4.10
2024-04-02T22:46:36.749Z,2.60
2024-04-02T22:49:03.073Z,3.60
2024-04-02T22:51:29.385Z,2.70
2024-04-02T22:53:55.674Z,2.40
2024-04-02T22:56:22.015Z,3.40
2024-04-02T22:58:48.346Z,6.00
2024-04-02T23:01:14.665Z,4.70
2024-04-02T23:03:40.982Z,3.20
2024-04-02T23:06:07.286Z,2.80
2024-04-02T23:08:33.612Z,2.90
2024-04-02T23:10:59.927Z,3.40
2024-04-02T23:13:26.245Z,2.00
2024-04-02T23:15:52.611Z,3.60
2024-04-02T23:18:18.954Z,2.60
2024-04-02T23:20:45.268Z,3.00
2024-04-02T23:23:11.589Z,1.90
2024-04-02T23:25:37.882Z,5.60
2024-04-02T23:28:04.232Z,3.20
2024-04-02T23:30:30.548Z,4.30
2024-04-02T23:32:56.855Z,5.60
2024-04-02T23:35:23.161Z,5.60
2024-04-02T23:37:49.479Z,4.00
2024-04-02T23:40:15.794Z,1.90
2024-04-02T23:42:42.123Z,4.30
2024-04-02T23:45:08.439Z,2.60
2024-04-02T23:47:34.853Z,4.00
2024-04-02T23:50:01.238Z,3.80
2024-04-02T23:52:27.572Z,3.20
2024-04-02T23:54:53.928Z,2.10
2024-04-02T23:57:20.228Z,2.30
2024-04-02T23:59:46.534Z,3.20
